createdAt,value
2023-02-07T00:01:21.321Z,1.99
2023-02-07T00:03:51.307Z,1.93
2023-02-07T00:06:21.874Z,1.88
2023-02-07T00:08:50.930Z,1.70
2023-02-07T00:11:20.976Z,1.67
2023-02-07T00:13:51.429Z,1.46
2023-02-07T00:16:20.181Z,1.44
2023-02-07T00:18:50.140Z,1.47
2023-02-07T00:21:20.303Z,1.52
2023-02-07T00:23:48.349Z,1.50
2023-02-07T00:26:17.999Z,1.60
2023-02-07T00:28:47.562Z,1.58
2023-02-07T00:31:17.870Z,1.53
2023-02-07T00:33:51.046Z,1.48
2023-02-07T00:36:28.027Z,1.33
2023-02-07T00:38:59.483Z,1.25
2023-02-07T00:41:27.876Z,1.28
2023-02-07T00:43:55.849Z,1.22
2023-02-07T00:46:23.914Z,1.13
2023-02-07T00:48:52.272Z,1.10
2023-02-07T00:51:21.485Z,1.22
2023-02-07T00:53:53.818Z,1.22
2023-02-07T00:56:22.925Z,1.14
2023-02-07T00:58:51.290Z,1.17
2023-02-07T01:01:20.272Z,1.18
2023-02-07T01:03:50.395Z,1.14
2023-02-07T01:06:18.639Z,1.04
2023-02-07T01:08:48.811Z,1.00
2023-02-07T01:11:18.963Z,1.09
2023-02-07T01:13:47.139Z,0.94
2023-02-07T01:16:19.653Z,0.81
2023-02-07T01:18:50.659Z,0.74
2023-02-07T01:21:21.629Z,0.82
2023-02-07T01:23:53.933Z,0.74
2023-02-07T01:26:22.010Z,0.57
2023-02-07T01:28:49.945Z,0.51
2023-02-07T01:31:18.200Z,0.48
2023-02-07T01:33:46.188Z,0.48
2023-02-07T01:36:17.447Z,0.52
2023-02-07T01:38:46.375Z,0.37
2023-02-07T01:41:15.913Z,0.34
2023-02-07T01:43:58.937Z,0.40
2023-02-07T01:46:27.079Z,0.36
2023-02-07T01:48:59.702Z,0.25
2023-02-07T01:51:28.606Z,0.34
2023-02-07T01:53:58.882Z,0.39
2023-02-07T01:56:32.340Z,0.42
2023-02-07T01:59:01.465Z,0.40
2023-02-07T02:01:29.305Z,0.39
2023-02-07T02:03:57.823Z,0.39
2023-02-07T02:06:32.952Z,0.28
2023-02-07T02:09:02.728Z,0.36
2023-02-07T02:11:57.255Z,0.32
2023-02-07T02:14:41.613Z,0.38
2023-02-07T02:17:16.885Z,0.35
2023-02-07T02:20:10.143Z,0.42
2023-02-07T02:23:00.687Z,0.48
2023-02-07T02:25:59.819Z,0.53
2023-02-07T02:29:01.909Z,0.46
2023-02-07T02:31:56.899Z,0.51
2023-02-07T02:34:39.518Z,0.65
2023-02-07T02:37:13.329Z,0.69
2023-02-07T02:39:46.963Z,0.72
2023-02-07T02:42:20.167Z,0.82
2023-02-07T02:44:51.554Z,0.88
2023-02-07T02:47:20.709Z,0.92
2023-02-07T02:49:50.383Z,1.00
2023-02-07T02:52:18.453Z,1.00
2023-02-07T02:54:46.104Z,0.91
2023-02-07T02:57:45.109Z,0.94
2023-02-07T03:00:25.902Z,0.96
2023-02-07T03:03:05.360Z,0.99
2023-02-07T03:05:49.820Z,0.98
2023-02-07T03:08:30.293Z,0.97
2023-02-07T03:11:08.915Z,0.86
2023-02-07T03:13:49.204Z,0.81
2023-02-07T03:16:23.515Z,0.83
2023-02-07T03:18:59.375Z,0.81
2023-02-07T03:21:32.452Z,0.78
2023-02-07T03:24:05.728Z,0.78
2023-02-07T03:26:35.488Z,0.75
2023-02-07T03:29:08.028Z,0.69
2023-02-07T03:31:40.798Z,0.65
2023-02-07T03:34:12.194Z,0.64
2023-02-07T03:36:47.496Z,0.68
2023-02-07T03:39:17.165Z,0.64
2023-02-07T03:41:49.918Z,0.67
2023-02-07T03:44:23.369Z,0.66
2023-02-07T03:46:52.016Z,0.62
2023-02-07T03:49:19.743Z,0.64
2023-02-07T03:51:48.962Z,0.60
2023-02-07T03:54:16.911Z,0.65
2023-02-07T03:56:45.009Z,0.66
2023-02-07T03:59:13.091Z,0.63
2023-02-07T04:01:42.547Z,0.60
2023-02-07T04:04:10.439Z,0.61
2023-02-07T04:06:38.263Z,0.54
2023-02-07T04:09:07.495Z,0.52
2023-02-07T04:11:35.144Z,0.52
2023-02-07T04:14:03.220Z,0.47
2023-02-07T04:16:30.897Z,0.49
2023-02-07T04:18:58.549Z,0.53
2023-02-07T04:21:26.185Z,0.57
2023-02-07T04:23:53.763Z,0.66
2023-02-07T04:26:22.748Z,0.67
2023-02-07T04:28:50.388Z,0.70
2023-02-07T04:31:17.995Z,0.75
2023-02-07T04:33:45.607Z,0.75
2023-02-07T04:36:13.204Z,0.77
2023-02-07T04:38:41.245Z,0.73
2023-02-07T04:41:09.925Z,0.62
2023-02-07T04:43:38.923Z,0.58
2023-02-07T04:46:08.217Z,0.44
2023-02-07T04:48:37.959Z,0.40
2023-02-07T04:51:06.399Z,0.36
2023-02-07T04:53:34.231Z,0.36
2023-02-07T04:56:01.894Z,0.32
2023-02-07T04:58:29.698Z,0.21
2023-02-07T05:00:58.987Z,0.18
2023-02-07T05:03:26.811Z,0.12
2023-02-07T05:05:55.423Z,0.16
2023-02-07T05:08:25.844Z,0.09
2023-02-07T05:10:56.055Z,-0.02
2023-02-07T05:13:24.930Z,0.02
2023-02-07T05:15:52.629Z,0.03
2023-02-07T05:18:21.844Z,0.00
2023-02-07T05:20:52.196Z,-0.06
2023-02-07T05:23:20.043Z,-0.10
2023-02-07T05:25:48.758Z,-0.09
2023-02-07T05:28:16.980Z,-0.08
2023-02-07T05:30:44.733Z,-0.12
2023-02-07T05:33:11.999Z,-0.11
2023-02-07T05:35:42.480Z,-0.09
2023-02-07T05:38:12.276Z,-0.06
2023-02-07T05:40:42.188Z,-0.10
2023-02-07T05:43:10.855Z,-0.25
2023-02-07T05:45:39.241Z,-0.16
2023-02-07T05:48:08.374Z,-0.13
2023-02-07T05:50:36.742Z,-0.13
2023-02-07T05:53:06.182Z,-0.24
2023-02-07T05:55:33.766Z,-0.19
2023-02-07T05:58:02.606Z,-0.16
2023-02-07T06:00:30.566Z,-0.12
2023-02-07T06:02:58.370Z,-0.24
2023-02-07T06:05:31.375Z,-0.33
2023-02-07T06:07:59.116Z,-0.42
2023-02-07T06:10:28.103Z,-0.43
2023-02-07T06:12:55.909Z,-0.37
2023-02-07T06:15:23.745Z,-0.39
2023-02-07T06:17:51.723Z,-0.33
2023-02-07T06:20:19.663Z,-0.32
2023-02-07T06:22:48.278Z,-0.28
2023-02-07T06:25:16.221Z,-0.23
2023-02-07T06:27:45.223Z,-0.23
2023-02-07T06:30:14.052Z,-0.28
2023-02-07T06:32:41.727Z,-0.32
2023-02-07T06:35:10.396Z,-0.24
2023-02-07T06:37:38.136Z,-0.33
2023-02-07T06:40:06.773Z,-0.47
2023-02-07T06:42:34.641Z,-0.49
2023-02-07T06:45:03.990Z,-0.45
2023-02-07T06:47:31.601Z,-0.52
2023-02-07T06:49:59.315Z,-0.57
2023-02-07T06:52:28.027Z,-0.57
2023-02-07T06:54:55.675Z,-0.49
2023-02-07T06:57:23.630Z,-0.44
2023-02-07T06:59:51.329Z,-0.41
2023-02-07T07:02:20.485Z,-0.31
2023-02-07T07:04:48.258Z,-0.25
2023-02-07T07:07:15.848Z,-0.17
2023-02-07T07:09:43.584Z,-0.14
2023-02-07T07:12:11.659Z,-0.19
2023-02-07T07:14:39.352Z,-0.19
2023-02-07T07:17:07.214Z,-0.13
2023-02-07T07:19:36.238Z,-0.12
2023-02-07T07:22:03.964Z,-0.17
2023-02-07T07:24:31.600Z,-0.17
2023-02-07T07:26:59.361Z,-0.18
2023-02-07T07:29:27.019Z,-0.28
2023-02-07T07:31:54.747Z,-0.28
2023-02-07T07:34:22.491Z,-0.24
2023-02-07T07:36:51.640Z,-0.23
2023-02-07T07:39:20.915Z,-0.24
2023-02-07T07:41:49.561Z,-0.29
2023-02-07T07:44:17.764Z,-0.27
2023-02-07T07:46:46.809Z,-0.27
2023-02-07T07:49:14.654Z,-0.17
2023-02-07T07:51:43.477Z,-0.20
2023-02-07T07:54:12.502Z,-0.19
2023-02-07T07:56:40.238Z,-0.09
2023-02-07T07:59:12.138Z,-0.12
2023-02-07T08:01:47.757Z,-0.09
2023-02-07T08:04:16.517Z,-0.03
2023-02-07T08:06:44.126Z,-0.01
2023-02-07T08:09:13.171Z,0.10
2023-02-07T08:11:40.823Z,0.15
2023-02-07T08:14:08.496Z,0.20
2023-02-07T08:16:36.263Z,0.25
2023-02-07T08:19:05.217Z,0.29
2023-02-07T08:21:32.902Z,0.41
2023-02-07T08:24:02.002Z,0.46
2023-02-07T08:26:31.212Z,0.51
2023-02-07T08:28:58.858Z,0.48
2023-02-07T08:31:26.479Z,0.55
2023-02-07T08:33:54.671Z,0.58
2023-02-07T08:36:22.368Z,0.62
2023-02-07T08:38:50.036Z,0.66
2023-02-07T08:41:17.718Z,0.67
2023-02-07T08:43:46.647Z,0.70
2023-02-07T08:46:14.592Z,0.83
2023-02-07T08:48:42.322Z,0.77
2023-02-07T08:51:10.904Z,0.90
2023-02-07T08:53:38.559Z,0.93
2023-02-07T08:56:10.047Z,1.06
2023-02-07T08:58:37.668Z,1.14
2023-02-07T09:01:10.865Z,1.12
2023-02-07T09:03:38.814Z,1.14
2023-02-07T09:06:07.286Z,1.02
2023-02-07T09:08:34.952Z,1.13
2023-02-07T09:11:02.625Z,1.11
2023-02-07T09:13:30.333Z,1.07
2023-02-07T09:15:59.838Z,1.18
2023-02-07T09:18:30.963Z,1.22
2023-02-07T09:20:58.680Z,1.34
2023-02-07T09:23:26.278Z,1.38
2023-02-07T09:25:55.068Z,1.32
2023-02-07T09:28:23.259Z,1.44
2023-02-07T09:30:51.574Z,1.47
2023-02-07T09:33:19.592Z,1.37
2023-02-07T09:35:48.538Z,1.56
2023-02-07T09:38:19.225Z,1.54
2023-02-07T09:40:49.636Z,1.69
2023-02-07T09:43:29.401Z,1.85
2023-02-07T09:46:05.436Z,1.89
2023-02-07T09:48:45.689Z,1.91
2023-02-07T09:51:19.919Z,2.03
2023-02-07T09:53:54.462Z,2.12
2023-02-07T09:56:24.968Z,1.92
2023-02-07T09:59:00.183Z,1.92
2023-02-07T10:01:32.868Z,1.95
2023-02-07T10:04:14.640Z,1.88
2023-02-07T10:06:47.915Z,1.95
2023-02-07T10:09:30.981Z,2.01
2023-02-07T10:12:04.250Z,2.09
2023-02-07T10:14:52.297Z,2.09
2023-02-07T10:17:43.591Z,2.21
2023-02-07T10:20:33.524Z,2.23
2023-02-07T10:23:21.524Z,2.07
2023-02-07T10:25:59.152Z,2.14
2023-02-07T10:28:46.158Z,2.07
2023-02-07T10:31:16.596Z,1.93
2023-02-07T10:33:49.134Z,2.06
2023-02-07T10:36:18.299Z,2.09
2023-02-07T10:39:08.431Z,2.15
2023-02-07T10:41:38.962Z,2.10
2023-02-07T10:44:10.940Z,2.23
2023-02-07T10:46:42.137Z,2.40
2023-02-07T10:49:24.820Z,2.37
2023-02-07T10:51:57.979Z,2.27
2023-02-07T10:54:27.031Z,2.17
2023-02-07T10:57:01.635Z,2.32
2023-02-07T10:59:40.556Z,2.42
2023-02-07T11:02:39.510Z,2.34
2023-02-07T11:05:30.036Z,2.29
2023-02-07T11:07:59.542Z,2.35
2023-02-07T11:10:33.722Z,2.41
2023-02-07T11:13:02.417Z,2.45
2023-02-07T11:15:39.790Z,2.32
2023-02-07T11:18:08.794Z,2.50
2023-02-07T11:20:39.326Z,2.50
2023-02-07T11:23:14.322Z,2.36
2023-02-07T11:25:46.897Z,2.29
2023-02-07T11:28:21.787Z,2.35
2023-02-07T11:30:56.405Z,2.32
2023-02-07T11:33:27.419Z,2.48
2023-02-07T11:36:11.908Z,2.43
2023-02-07T11:38:41.450Z,2.41
2023-02-07T11:41:19.713Z,2.55
2023-02-07T11:43:59.308Z,2.54
2023-02-07T11:46:36.558Z,2.56
2023-02-07T11:49:07.297Z,2.50
2023-02-07T11:51:35.264Z,2.55
2023-02-07T11:54:05.797Z,2.63
2023-02-07T11:56:39.569Z,2.63
2023-02-07T11:59:15.508Z,2.66
2023-02-07T12:01:44.994Z,2.70
2023-02-07T12:04:18.147Z,2.66
2023-02-07T12:06:53.154Z,2.63
2023-02-07T12:09:33.796Z,2.64
2023-02-07T12:12:06.182Z,2.69
2023-02-07T12:14:39.928Z,2.78
2023-02-07T12:17:14.124Z,2.90
2023-02-07T12:19:54.102Z,3.08
2023-02-07T12:22:26.180Z,3.24
2023-02-07T12:24:58.992Z,3.38
2023-02-07T12:27:35.608Z,3.55
2023-02-07T12:30:13.778Z,3.68
2023-02-07T12:32:49.946Z,3.86
2023-02-07T12:35:27.155Z,4.09
2023-02-07T12:38:01.636Z,4.28
2023-02-07T12:40:34.882Z,4.40
2023-02-07T12:43:11.955Z,4.52
2023-02-07T12:45:52.718Z,4.72
2023-02-07T12:48:31.339Z,4.90
2023-02-07T12:51:10.164Z,5.01
2023-02-07T12:53:53.417Z,5.08
2023-02-07T12:56:36.615Z,5.13
2023-02-07T12:59:15.082Z,5.21
2023-02-07T13:01:47.555Z,5.25
2023-02-07T13:04:35.411Z,5.41
2023-02-07T13:07:17.704Z,5.53
2023-02-07T13:09:51.952Z,5.61
2023-02-07T13:12:29.401Z,5.71
2023-02-07T13:15:16.829Z,5.72
2023-02-07T13:17:56.467Z,5.86
2023-02-07T13:20:42.263Z,5.93
2023-02-07T13:23:17.394Z,6.04
2023-02-07T13:25:48.684Z,6.07
2023-02-07T13:28:21.987Z,5.98
2023-02-07T13:30:51.880Z,5.89
2023-02-07T13:33:29.048Z,5.92
2023-02-07T13:35:59.725Z,5.83
2023-02-07T13:38:40.013Z,5.57
2023-02-07T13:41:13.369Z,5.29
2023-02-07T13:44:01.666Z,5.21
2023-02-07T13:46:58.810Z,5.05
2023-02-07T13:49:37.827Z,4.83
2023-02-07T13:52:11.951Z,4.82
2023-02-07T13:54:46.628Z,4.78
2023-02-07T13:57:54.474Z,4.62
2023-02-07T14:00:25.030Z,4.55
2023-02-07T14:02:56.193Z,4.45
2023-02-07T14:05:26.885Z,4.49
2023-02-07T14:07:59.302Z,4.38
2023-02-07T14:10:39.670Z,4.34
2023-02-07T14:13:07.486Z,4.29
2023-02-07T14:16:00.418Z,4.25
2023-02-07T14:18:41.189Z,4.23
2023-02-07T14:21:29.682Z,4.25
2023-02-07T14:24:17.796Z,4.15
2023-02-07T14:27:26.763Z,4.02
2023-02-07T14:30:09.687Z,3.97
2023-02-07T14:32:44.245Z,3.99
2023-02-07T14:35:32.971Z,3.89
2023-02-07T14:38:13.824Z,3.87
2023-02-07T14:41:08.538Z,3.80
2023-02-07T14:43:59.738Z,3.78
2023-02-07T14:46:38.358Z,3.71
2023-02-07T14:49:09.286Z,3.73
2023-02-07T14:51:45.028Z,3.76
2023-02-07T14:54:20.387Z,3.67
2023-02-07T14:56:52.772Z,3.71
2023-02-07T14:59:30.039Z,3.74
2023-02-07T15:01:58.002Z,3.75
2023-02-07T15:04:28.144Z,3.71
2023-02-07T15:06:57.042Z,3.78
2023-02-07T15:09:28.199Z,3.70
2023-02-07T15:12:22.307Z,3.76
2023-02-07T15:14:55.135Z,3.65
2023-02-07T15:17:27.149Z,3.66
2023-02-07T15:19:57.342Z,3.60
2023-02-07T15:22:29.103Z,3.58
2023-02-07T15:24:58.398Z,3.57
2023-02-07T15:27:29.088Z,3.50
2023-02-07T15:29:59.043Z,3.45
2023-02-07T15:32:30.233Z,3.50
2023-02-07T15:35:07.461Z,3.48
2023-02-07T15:37:37.460Z,3.45
2023-02-07T15:40:14.533Z,3.46
2023-02-07T15:42:51.662Z,3.44
2023-02-07T15:45:27.031Z,3.43
2023-02-07T15:47:59.394Z,3.41
2023-02-07T15:50:28.915Z,3.26
2023-02-07T15:53:00.624Z,3.16
2023-02-07T15:55:35.129Z,3.27
2023-02-07T15:58:04.025Z,3.22
2023-02-07T16:00:37.832Z,3.22
2023-02-07T16:03:07.494Z,3.28
2023-02-07T16:05:37.943Z,3.33
2023-02-07T16:08:27.916Z,3.31
2023-02-07T16:10:55.752Z,3.30
2023-02-07T16:13:24.048Z,3.29
2023-02-07T16:15:56.850Z,3.24
2023-02-07T16:18:38.841Z,3.27
2023-02-07T16:21:12.447Z,3.27
2023-02-07T16:23:42.225Z,3.27
2023-02-07T16:26:10.185Z,3.25
2023-02-07T16:28:37.890Z,3.23
2023-02-07T16:31:06.037Z,3.21
2023-02-07T16:33:33.757Z,3.16
2023-02-07T16:36:01.360Z,3.22
2023-02-07T16:38:28.958Z,3.24
2023-02-07T16:40:58.145Z,3.20
2023-02-07T16:43:36.397Z,3.15
2023-02-07T16:46:04.357Z,3.13
2023-02-07T16:48:32.501Z,3.08
2023-02-07T16:51:01.324Z,3.04
2023-02-07T16:53:29.208Z,2.96
2023-02-07T16:55:59.144Z,2.96
2023-02-07T16:58:29.266Z,2.97
2023-02-07T17:00:57.131Z,3.00
2023-02-07T17:03:25.188Z,2.97
2023-02-07T17:05:52.823Z,3.00
2023-02-07T17:08:27.783Z,3.02
2023-02-07T17:11:01.239Z,2.98
2023-02-07T17:13:29.180Z,2.88
2023-02-07T17:15:58.083Z,2.91
2023-02-07T17:18:26.900Z,2.93
2023-02-07T17:20:55.820Z,2.97
2023-02-07T17:23:25.241Z,2.96
2023-02-07T17:25:52.910Z,2.95
2023-02-07T17:28:22.792Z,2.95
2023-02-07T17:30:50.810Z,2.95
2023-02-07T17:33:18.575Z,2.98
2023-02-07T17:35:46.220Z,3.04
2023-02-07T17:38:15.043Z,3.02
2023-02-07T17:40:44.999Z,3.02
2023-02-07T17:43:14.387Z,3.03
2023-02-07T17:45:43.594Z,2.99
2023-02-07T17:48:15.273Z,2.93
2023-02-07T17:50:43.915Z,2.86
2023-02-07T17:53:12.487Z,2.82
2023-02-07T17:55:40.239Z,2.80
2023-02-07T17:58:08.232Z,2.75
2023-02-07T18:00:39.098Z,2.79
2023-02-07T18:03:08.977Z,2.80
2023-02-07T18:05:37.216Z,2.82
2023-02-07T18:08:05.234Z,2.85
2023-02-07T18:10:37.016Z,2.82
2023-02-07T18:13:05.246Z,2.82
2023-02-07T18:15:32.984Z,2.81
2023-02-07T18:18:03.691Z,2.77
2023-02-07T18:20:34.441Z,2.77
2023-02-07T18:23:02.171Z,2.75
2023-02-07T18:25:30.987Z,2.82
2023-02-07T18:28:01.273Z,2.82
2023-02-07T18:30:30.047Z,2.74
2023-02-07T18:33:00.511Z,2.75
2023-02-07T18:35:28.660Z,2.74
2023-02-07T18:37:57.610Z,2.71
2023-02-07T18:40:25.308Z,2.61
2023-02-07T18:42:53.182Z,2.50
2023-02-07T18:45:20.807Z,2.44
2023-02-07T18:47:49.450Z,2.40
2023-02-07T18:50:19.431Z,2.26
2023-02-07T18:52:47.206Z,2.24
2023-02-07T18:55:16.312Z,2.09
2023-02-07T18:57:44.175Z,2.17
2023-02-07T19:00:12.878Z,2.13
2023-02-07T19:02:40.597Z,2.09
2023-02-07T19:05:09.294Z,2.05
2023-02-07T19:07:37.563Z,2.07
2023-02-07T19:10:05.418Z,2.05
2023-02-07T19:12:34.630Z,2.06
2023-02-07T19:15:02.292Z,2.08
2023-02-07T19:17:29.876Z,2.08
2023-02-07T19:19:57.541Z,2.08
2023-02-07T19:22:35.486Z,2.06
2023-02-07T19:25:03.837Z,2.10
2023-02-07T19:27:31.541Z,2.14
2023-02-07T19:30:02.371Z,2.30
2023-02-07T19:32:31.181Z,2.39
2023-02-07T19:34:59.393Z,2.45
2023-02-07T19:37:28.095Z,2.55
2023-02-07T19:39:56.424Z,2.51
2023-02-07T19:42:24.999Z,2.34
2023-02-07T19:44:52.656Z,2.24
2023-02-07T19:47:21.620Z,2.29
2023-02-07T19:49:51.700Z,2.19
2023-02-07T19:52:19.854Z,2.16
2023-02-07T19:54:48.114Z,2.13
2023-02-07T19:57:16.924Z,2.04
2023-02-07T19:59:45.532Z,2.06
2023-02-07T20:02:14.797Z,2.08
2023-02-07T20:04:43.817Z,2.02
2023-02-07T20:07:11.626Z,1.95
2023-02-07T20:09:39.313Z,1.91
2023-02-07T20:12:07.958Z,1.85
2023-02-07T20:14:35.984Z,1.89
2023-02-07T20:17:03.607Z,1.78
2023-02-07T20:19:31.276Z,1.76
2023-02-07T20:22:00.406Z,1.81
2023-02-07T20:24:28.866Z,1.81
2023-02-07T20:26:56.625Z,1.76
2023-02-07T20:29:24.296Z,1.72
2023-02-07T20:31:52.015Z,1.68
2023-02-07T20:34:19.706Z,1.67
2023-02-07T20:36:47.606Z,1.62
2023-02-07T20:39:20.740Z,1.60
2023-02-07T20:41:49.399Z,1.63
2023-02-07T20:44:20.616Z,1.54
2023-02-07T20:46:49.534Z,1.58
2023-02-07T20:49:20.687Z,1.54
2023-02-07T20:51:51.978Z,1.48
2023-02-07T20:54:23.939Z,1.56
2023-02-07T20:56:51.921Z,1.49
2023-02-07T20:59:20.998Z,1.42
2023-02-07T21:01:49.150Z,1.37
2023-02-07T21:04:17.364Z,1.35
2023-02-07T21:06:49.067Z,1.39
2023-02-07T21:09:18.203Z,1.37
2023-02-07T21:11:48.948Z,1.38
2023-02-07T21:14:18.452Z,1.39
2023-02-07T21:16:46.587Z,1.45
2023-02-07T21:19:14.715Z,1.45
2023-02-07T21:21:43.700Z,1.46
2023-02-07T21:24:11.257Z,1.48
2023-02-07T21:26:38.846Z,1.41
2023-02-07T21:29:08.485Z,1.37
2023-02-07T21:31:36.648Z,1.31
2023-02-07T21:34:04.806Z,1.24
2023-02-07T21:36:37.413Z,1.26
2023-02-07T21:39:08.429Z,1.29
2023-02-07T21:41:38.500Z,1.28
2023-02-07T21:44:08.210Z,1.28
2023-02-07T21:46:42.798Z,1.30
2023-02-07T21:49:14.517Z,1.29
2023-02-07T21:51:42.660Z,1.24
2023-02-07T21:54:10.436Z,1.24
2023-02-07T21:56:40.014Z,1.25
2023-02-07T21:59:12.385Z,1.26
2023-02-07T22:01:40.330Z,1.23
2023-02-07T22:04:10.232Z,1.27
2023-02-07T22:06:42.403Z,1.15
2023-02-07T22:09:12.529Z,1.08
2023-02-07T22:11:40.222Z,1.06
2023-02-07T22:14:10.049Z,1.07
2023-02-07T22:16:37.725Z,1.13
2023-02-07T22:19:06.820Z,1.14
2023-02-07T22:21:37.243Z,1.05
2023-02-07T22:24:07.138Z,1.06
2023-02-07T22:26:35.467Z,1.03
2023-02-07T22:29:04.036Z,0.95
2023-02-07T22:31:35.794Z,1.01
2023-02-07T22:34:07.072Z,1.04
2023-02-07T22:36:38.287Z,1.00
2023-02-07T22:39:08.195Z,0.91
2023-02-07T22:41:36.633Z,0.75
2023-02-07T22:44:05.418Z,0.68
2023-02-07T22:46:34.487Z,0.72
2023-02-07T22:49:02.084Z,0.74
2023-02-07T22:51:32.278Z,0.80
2023-02-07T22:54:02.071Z,0.76
2023-02-07T22:56:29.687Z,0.76
2023-02-07T22:58:57.336Z,0.74
2023-02-07T23:01:26.756Z,0.72
2023-02-07T23:03:56.556Z,0.78
2023-02-07T23:06:25.302Z,0.71
2023-02-07T23:08:53.850Z,0.67
2023-02-07T23:11:23.935Z,0.73
2023-02-07T23:13:53.384Z,0.77
2023-02-07T23:16:23.036Z,0.70
2023-02-07T23:18:51.924Z,0.59
2023-02-07T23:21:22.450Z,0.60
2023-02-07T23:23:50.779Z,0.64
2023-02-07T23:26:20.743Z,0.60
2023-02-07T23:28:48.417Z,0.53
2023-02-07T23:31:18.065Z,0.52
2023-02-07T23:33:45.777Z,0.52
2023-02-07T23:36:16.654Z,0.52
2023-02-07T23:38:46.765Z,0.52
2023-02-07T23:41:15.434Z,0.56
2023-02-07T23:43:43.158Z,0.55
2023-02-07T23:46:11.724Z,0.51
2023-02-07T23:48:39.346Z,0.47
2023-02-07T23:51:07.893Z,0.41
2023-02-07T23:53:36.022Z,0.39
2023-02-07T23:56:06.917Z,0.35
2023-02-07T23:58:34.888Z,0.32
